»·PEaware :: N208CJ KLAX-KSAN

N208CJ :: KLAX-KSAN

FLIGHT INFORMATION

Flight Status: Arrived
Operator: Privately registered:
United States
More flights under this callsign
Pilot: Christopher J. (304)
Aircraft: CESSNA 208 CARAVAN
(C208)
More flights by this aircraft type
Origin: KLAX Los Angeles Intl
United States
Destination: KSAN San Diego Intl-Lindbergh
United States
More flights between these airports :: More routes between these airports
Route: +
File this flight plan on PilotEdge
Remarks:
Altitude:
(Current/Filed)
3,500ft
Speed:
(Current/Filed)
0kts
Departed: 02-Dec-18 01:22 PM
Arrived: 02-Dec-18 02:28 PM
Distance/Time
Traveled:
95nm/1:05
Distance/Time
To Go:
Arrived

Flight Plot

Page will automatically refresh every two minutes.


Map Options




Map Legend


Flown Route
Filed Route
Departure Airport
Arrival Airport
Navaid (VOR, NDB)
Fix

Horizontal Profiles

Position Reports

Time Latitude Longitude Heading Altitude Ground
Speed
02-Dec-18 13:08 33.933288 -118.400579 172 130ft 0kts
02-Dec-18 13:09 33.933288 -118.400579 172 130ft 0kts
02-Dec-18 13:10 33.933288 -118.400579 172 130ft 0kts
02-Dec-18 13:11 33.933288 -118.400579 172 130ft 0kts
02-Dec-18 13:12 33.933288 -118.400579 172 130ft 0kts
02-Dec-18 13:13 33.933288 -118.400579 172 130ft 0kts
02-Dec-18 13:14 33.933288 -118.400579 172 130ft 0kts
02-Dec-18 13:15 33.933288 -118.400579 172 130ft 0kts
02-Dec-18 13:16 33.933498 -118.400424 5 130ft 2kts
02-Dec-18 13:17 33.934482 -118.399112 82 130ft 14kts
02-Dec-18 13:18 33.934736 -118.396489 79 130ft 4kts
02-Dec-18 13:19 33.935074 -118.393143 80 130ft 21kts
02-Dec-18 13:20 33.935893 -118.385250 81 130ft 30kts
02-Dec-18 13:21 33.936193 -118.382522 55 130ft 0kts
02-Dec-18 13:22 33.936193 -118.382522 55 130ft 0kts
02-Dec-18 13:23 33.936193 -118.382522 55 130ft 0kts
02-Dec-18 13:24 33.936861 -118.382771 343 130ft 9kts
02-Dec-18 13:25 33.936927 -118.387730 266 130ft 86kts
02-Dec-18 13:26 33.932300 -118.423895 269 1771ft 115kts
02-Dec-18 13:27 33.927307 -118.467219 266 2840ft 134kts
02-Dec-18 13:28 33.903474 -118.489846 168 3252ft 162kts
02-Dec-18 13:29 33.859453 -118.479830 173 3055ft 148kts
02-Dec-18 13:30 33.817596 -118.467950 165 3064ft 160kts
02-Dec-18 13:31 33.772340 -118.447595 168 3207ft 184kts
02-Dec-18 13:32 33.724376 -118.425276 161 3066ft 183kts
02-Dec-18 13:33 33.683626 -118.400395 122 3023ft 153kts
02-Dec-18 13:34 33.669714 -118.353993 111 3022ft 146kts
02-Dec-18 13:35 33.656838 -118.308017 111 3022ft 144kts
02-Dec-18 13:36 33.644055 -118.262566 110 3020ft 144kts
02-Dec-18 13:37 33.632229 -118.211922 109 3441ft 176kts
02-Dec-18 13:38 33.610468 -118.153832 109 3602ft 193kts
02-Dec-18 13:39 33.595425 -118.099596 108 3513ft 158kts
02-Dec-18 13:40 33.581975 -118.050905 105 3514ft 151kts
02-Dec-18 13:41 33.557095 -118.014179 132 3510ft 144kts
02-Dec-18 13:42 33.528865 -117.980431 135 3514ft 143kts
02-Dec-18 13:43 33.499120 -117.949525 137 3514ft 140kts
02-Dec-18 13:44 33.466760 -117.918098 137 3517ft 162kts
02-Dec-18 13:45 33.431188 -117.883186 137 3514ft 166kts
02-Dec-18 13:46 33.398302 -117.850823 136 3515ft 145kts
02-Dec-18 13:47 33.367661 -117.819724 136 3519ft 145kts
02-Dec-18 13:48 33.337507 -117.786778 136 3503ft 148kts
02-Dec-18 13:49 33.307688 -117.752327 139 3505ft 149kts
02-Dec-18 13:50 33.277607 -117.718242 139 3506ft 148kts
02-Dec-18 13:51 33.247280 -117.685249 143 3506ft 147kts
02-Dec-18 13:52 33.216082 -117.653393 143 3506ft 147kts
02-Dec-18 13:53 33.185071 -117.621638 144 3525ft 147kts
02-Dec-18 13:54 33.152550 -117.592229 146 3525ft 147kts
02-Dec-18 13:55 33.119857 -117.562806 146 3525ft 147kts
02-Dec-18 13:56 33.087335 -117.533588 146 3525ft 146kts
02-Dec-18 13:57 33.054766 -117.504355 146 3525ft 146kts
02-Dec-18 13:58 33.023195 -117.475912 146 3524ft 139kts
02-Dec-18 13:59 33.015472 -117.438393 59 3526ft 138kts
02-Dec-18 14:00 33.043306 -117.432071 321 3526ft 120kts
02-Dec-18 14:01 33.077503 -117.460772 320 1824ft 144kts
02-Dec-18 14:02 33.107785 -117.487496 303 1519ft 119kts
02-Dec-18 14:03 33.090229 -117.498923 133 1528ft 121kts
02-Dec-18 14:04 33.062927 -117.477195 151 1524ft 117kts
02-Dec-18 14:05 33.035218 -117.456790 151 1524ft 117kts
02-Dec-18 14:06 33.007358 -117.437051 153 1524ft 116kts
02-Dec-18 14:07 32.979243 -117.417950 152 1524ft 116kts
02-Dec-18 14:08 32.950146 -117.401344 159 1524ft 115kts
02-Dec-18 14:09 32.920607 -117.386474 159 1526ft 116kts
02-Dec-18 14:10 32.890397 -117.377232 176 1527ft 112kts
02-Dec-18 14:11 32.859541 -117.373064 180 1524ft 112kts
02-Dec-18 14:12 32.828106 -117.370942 180 1520ft 113kts
02-Dec-18 14:13 32.797261 -117.374355 200 1524ft 110kts
02-Dec-18 14:14 32.769694 -117.389206 219 1524ft 108kts
02-Dec-18 14:15 32.747394 -117.412475 233 1524ft 106kts
02-Dec-18 14:16 32.742513 -117.442943 300 1525ft 98kts
02-Dec-18 14:17 32.766479 -117.455159 0 1524ft 102kts
02-Dec-18 14:18 32.794657 -117.450861 7 1524ft 103kts
02-Dec-18 14:19 32.822354 -117.442273 24 1521ft 106kts
02-Dec-18 14:20 32.840241 -117.414852 87 1523ft 115kts
02-Dec-18 14:21 32.838511 -117.376536 92 1500ft 114kts
02-Dec-18 14:22 32.834021 -117.341388 96 1500ft 112kts
02-Dec-18 14:23 32.829457 -117.305779 96 1500ft 108kts
02-Dec-18 14:24 32.825086 -117.270852 96 1502ft 106kts
02-Dec-18 14:25 32.820829 -117.236337 95 1499ft 105kts
02-Dec-18 14:26 32.816670 -117.201922 95 1504ft 105kts
02-Dec-18 14:27 32.802982 -117.179807 184 1400ft 97kts
02-Dec-18 14:28 32.776070 -117.171705 172 1113ft 95kts
02-Dec-18 14:29 32.754744 -117.170848 184 954ft 89kts
02-Dec-18 14:30 32.730550 -117.176386 268 289ft 68kts
02-Dec-18 14:31 32.733805 -117.191098 287 22ft 33kts

Navigation Log

Ident Type
Flight plan parsing failed, navigation log unavailable